Time;durP1;ratioP1;P1;durP2;ratioP2;P2;SDS_P1;SDS_P2;PMS_P1;PMS_P2;Temp;Humidity;BMP_temperature;BMP_pressure;BME280_temperature;BME280_humidity;BME280_pressure;Samples;Min_cycle;Max_cycle;Signal;HPM_P1;HPM_P2
2022/03/05 00:00:43;;;;;;;3.67;3.20;;;;;;;17.62;42.01;97675.66;4995670;28;20680;-87
2022/03/05 00:03:10;;;;;;;3.70;3.40;;;;;;;17.99;41.90;97746.09;4996398;28;20204;-87
2022/03/05 00:05:37;;;;;;;3.60;3.30;;;;;;;18.03;41.94;97752.19;5011995;28;20718;-86
2022/03/05 00:08:03;;;;;;;3.77;3.43;;;;;;;17.93;41.83;97735.63;4998922;28;20239;-88
2022/03/05 00:10:30;;;;;;;3.90;3.60;;;;;;;17.89;41.90;97733.72;5015176;28;20699;-86
2022/03/05 00:12:57;;;;;;;3.43;3.13;;;;;;;17.88;41.74;97728.56;5014463;28;20213;-87
2022/03/05 00:15:24;;;;;;;3.47;3.17;;;;;;;17.83;41.86;97723.28;5015074;28;20253;-87
2022/03/05 00:17:51;;;;;;;3.90;3.60;;;;;;;17.70;41.72;97705.72;4999447;28;20197;-87
2022/03/05 00:44:14;;;;;;;3.63;3.33;;;;;;;17.84;42.29;97731.78;4950133;29;20324;-85
2022/03/05 00:46:41;;;;;;;3.80;3.50;;;;;;;17.95;42.33;97753.50;4978679;28;20228;-87
2022/03/05 00:49:08;;;;;;;3.80;3.50;;;;;;;17.62;42.24;97691.75;4949320;29;20252;-86
2022/03/05 00:51:34;;;;;;;3.37;3.07;;;;;;;17.37;42.13;97648.19;4965221;28;20659;-86
2022/03/05 00:54:01;;;;;;;3.63;3.30;;;;;;;18.02;42.04;97753.84;4933621;29;20209;-87
2022/03/05 00:56:28;;;;;;;3.90;3.60;;;;;;;17.87;41.73;97737.88;4949370;29;20662;-86
2022/03/05 00:58:55;;;;;;;4.23;3.83;;;;;;;17.93;42.00;97750.00;4933333;29;20291;-87
2022/03/05 01:01:21;;;;;;;4.20;3.80;;;;;;;17.85;42.29;97730.97;4965300;28;20236;-87
2022/03/05 01:03:49;;;;;;;3.83;3.47;;;;;;;17.76;42.10;97710.19;4931946;29;20212;-87
2022/03/05 01:06:15;;;;;;;4.67;4.10;;;;;;;17.87;41.71;97724.28;4914450;29;20316;-86
2022/03/05 01:08:42;;;;;;;4.00;3.60;;;;;;;17.83;42.19;97720.72;4914519;29;20241;-86
2022/03/05 01:11:08;;;;;;;3.97;3.67;;;;;;;17.81;41.54;97721.47;4945653;29;20292;-86
2022/03/05 01:13:36;;;;;;;3.70;3.40;;;;;;;17.54;41.78;97680.38;4914470;29;20205;-86
2022/03/05 01:16:03;;;;;;;4.10;3.77;;;;;;;17.93;41.41;97738.16;4914067;29;20221;-86
2022/03/05 01:18:29;;;;;;;4.07;3.73;;;;;;;18.06;42.00;97753.19;4914283;29;20284;-86
2022/03/05 01:20:56;;;;;;;4.40;4.00;;;;;;;17.79;41.78;97708.69;4929894;29;20289;-86
2022/03/05 01:23:22;;;;;;;3.80;3.50;;;;;;;17.82;41.82;97719.00;4914667;29;20248;-85
2022/03/05 01:25:49;;;;;;;4.17;3.77;;;;;;;17.54;41.43;97670.22;4914060;29;20264;-86
2022/03/05 01:28:16;;;;;;;4.40;4.00;;;;;;;17.76;41.67;97702.56;4930187;29;20241;-86
2022/03/05 01:30:42;;;;;;;4.37;3.97;;;;;;;17.45;41.89;97648.59;4929542;29;20237;-86
2022/03/05 01:33:09;;;;;;;4.20;3.80;;;;;;;17.82;41.71;97715.56;4929849;29;20292;-86
2022/03/05 01:35:36;;;;;;;4.33;3.93;;;;;;;17.81;41.82;97709.63;4913755;29;20244;-86
2022/03/05 01:38:02;;;;;;;4.10;3.80;;;;;;;17.79;41.89;97707.81;4914438;29;20225;-86
2022/03/05 01:40:30;;;;;;;4.87;4.37;;;;;;;17.64;42.05;97684.22;4929766;29;20237;-86
2022/03/05 01:42:56;;;;;;;4.20;3.80;;;;;;;17.82;41.94;97707.94;4913511;29;20305;-86
2022/03/05 01:45:23;;;;;;;4.63;4.10;;;;;;;17.78;41.84;97711.16;4960661;28;20272;-87
2022/03/05 02:14:40;;;;;;;5.10;4.53;;;;;;;17.78;41.58;97703.53;5025934;28;20217;-86
2022/03/05 02:17:10;;;;;;;4.70;4.30;;;;;;;17.75;41.86;97690.69;5010215;28;20848;-86
2022/03/05 02:19:37;;;;;;;4.60;4.20;;;;;;;17.57;41.64;97670.38;5010033;28;20717;-86
2022/03/05 02:22:03;;;;;;;4.20;3.80;;;;;;;17.80;41.78;97694.31;5009809;28;20282;-86
2022/03/05 02:24:33;;;;;;;4.90;4.40;;;;;;;18.04;41.75;97733.59;5009896;28;20241;-86
2022/03/05 02:27:03;;;;;;;4.80;4.40;;;;;;;17.81;41.52;97690.97;4994061;28;20237;-86
2022/03/05 02:29:33;;;;;;;4.93;4.53;;;;;;;17.47;41.55;97627.53;4993822;28;20259;-86
2022/03/05 02:32:00;;;;;;;4.93;4.43;;;;;;;17.99;41.62;97713.03;5010032;28;20649;-86
2022/03/05 02:34:28;;;;;;;4.20;3.80;;;;;;;17.78;41.58;97676.44;4993421;28;20205;-87
2022/03/05 02:36:55;;;;;;;4.87;4.40;;;;;;;17.75;41.37;97658.50;5009847;28;20702;-86
2022/03/05 02:39:24;;;;;;;4.47;4.07;;;;;;;17.92;41.84;97677.09;4994459;28;20209;-87
2022/03/05 02:41:52;;;;;;;4.53;4.13;;;;;;;17.81;41.69;97657.91;5025554;28;20478;-87
2022/03/05 02:44:18;;;;;;;5.30;4.80;;;;;;;17.98;41.47;97683.31;5010143;28;20263;-86
2022/03/05 02:46:45;;;;;;;4.60;4.20;;;;;;;17.84;41.25;97661.47;4993331;28;20248;-87
2022/03/05 02:49:12;;;;;;;5.07;4.63;;;;;;;17.94;41.44;97672.91;4993775;28;20248;-86
2022/03/05 02:51:38;;;;;;;4.40;4.00;;;;;;;17.93;41.31;97664.44;4993374;28;20244;-86
2022/03/05 02:54:05;;;;;;;5.60;5.10;;;;;;;17.92;41.50;97674.53;4993288;28;20261;-87
2022/03/05 02:56:32;;;;;;;4.60;4.20;;;;;;;17.90;41.53;97666.84;4993551;28;20332;-87
2022/03/05 02:58:58;;;;;;;4.80;4.40;;;;;;;18.00;41.41;97691.03;4997042;28;20209;-86
2022/03/05 03:01:25;;;;;;;4.83;4.43;;;;;;;17.87;41.26;97679.41;5012844;28;20644;-87
2022/03/05 03:03:52;;;;;;;5.03;4.50;;;;;;;18.05;41.59;97698.06;4996928;28;20584;-87
2022/03/05 03:06:19;;;;;;;4.57;4.20;;;;;;;17.89;41.14;97671.84;5013030;28;20323;-87
2022/03/05 03:08:45;;;;;;;4.97;4.57;;;;;;;17.99;41.40;97692.69;5013297;28;20293;-86
2022/03/05 03:11:12;;;;;;;4.80;4.37;;;;;;;18.00;41.86;97694.41;5013072;28;20641;-86
2022/03/05 03:13:39;;;;;;;4.93;4.43;;;;;;;17.44;41.39;97594.34;5012399;28;20252;-86
2022/03/05 03:16:05;;;;;;;5.23;4.73;;;;;;;17.89;41.75;97672.72;5013135;28;20317;-86
2022/03/05 03:18:32;;;;;;;4.77;4.37;;;;;;;17.93;41.31;97688.97;5012647;28;20217;-86
2022/03/05 03:20:59;;;;;;;4.73;4.33;;;;;;;18.00;41.71;97698.66;4996569;28;20678;-86
2022/03/05 03:23:25;;;;;;;4.80;4.40;;;;;;;18.00;41.59;97702.03;5012679;28;20279;-87
2022/03/05 03:25:52;;;;;;;4.80;4.30;;;;;;;17.74;41.50;97645.75;4996886;28;20756;-86
2022/03/05 03:28:18;;;;;;;4.67;4.27;;;;;;;17.98;41.55;97688.41;4996595;28;20313;-86
2022/03/05 03:30:45;;;;;;;4.90;4.50;;;;;;;17.90;41.72;97673.59;5012807;28;20304;-86
2022/03/05 03:33:12;;;;;;;4.70;4.27;;;;;;;17.95;41.93;97685.69;5012074;28;20305;-86
2022/03/05 03:35:38;;;;;;;5.00;4.50;;;;;;;17.92;41.58;97677.94;5012384;28;20287;-87
2022/03/05 03:38:05;;;;;;;4.77;4.37;;;;;;;17.87;41.38;97666.69;4996228;28;20205;-86
2022/03/05 03:40:31;;;;;;;4.80;4.40;;;;;;;17.61;41.47;97618.00;4996184;28;20201;-85
2022/03/05 03:42:58;;;;;;;5.00;4.60;;;;;;;18.00;41.78;97691.03;5013024;28;20687;-85
2022/03/05 03:45:25;;;;;;;5.10;4.60;;;;;;;17.99;41.25;97676.56;5012234;28;20234;-86
2022/03/05 04:30:56;;;;;;;4.87;4.47;;;;;;;17.90;42.15;97701.56;5819533;22;20309;-87
2022/03/05 04:33:23;;;;;;;4.87;4.47;;;;;;;17.82;41.84;97685.94;4997233;28;20225;-87
2022/03/05 04:35:49;;;;;;;5.00;4.50;;;;;;;17.84;41.73;97686.91;5029211;28;20580;-87
2022/03/05 04:38:16;;;;;;;5.43;4.93;;;;;;;17.99;41.73;97714.69;5027943;28;20703;-86
2022/03/05 04:40:42;;;;;;;5.20;4.70;;;;;;;18.05;41.22;97717.50;5011294;28;20247;-87
2022/03/05 04:43:09;;;;;;;5.43;4.93;;;;;;;17.90;41.38;97697.34;4995083;28;20307;-87
2022/03/05 04:45:36;;;;;;;5.60;5.10;;;;;;;17.87;41.58;97691.25;4995136;28;20325;-86
2022/03/05 04:48:02;;;;;;;5.27;4.77;;;;;;;17.91;41.70;97701.63;4994692;28;20506;-87
2022/03/05 04:50:29;;;;;;;5.20;4.70;;;;;;;17.93;41.66;97702.56;5011155;28;20283;-87
2022/03/05 04:52:55;;;;;;;5.00;4.60;;;;;;;17.76;41.44;97662.78;4994893;28;20260;-86
2022/03/05 04:55:22;;;;;;;4.83;4.43;;;;;;;17.98;41.80;97706.22;4994893;28;20320;-87
2022/03/05 04:57:49;;;;;;;5.00;4.50;;;;;;;17.96;41.83;97705.25;5010953;28;20296;-87
2022/03/05 05:00:15;;;;;;;5.03;4.53;;;;;;;18.05;41.51;97715.84;5010687;28;20652;-87
2022/03/05 05:02:42;;;;;;;4.90;4.50;;;;;;;17.83;41.60;97684.28;5010734;28;20304;-87
2022/03/05 05:05:10;;;;;;;5.30;4.80;;;;;;;18.06;41.50;97722.66;5011076;28;20228;-87
2022/03/05 05:07:40;;;;;;;5.17;4.67;;;;;;;17.86;41.70;97684.44;5026836;28;20312;-87
2022/03/05 05:10:06;;;;;;;5.30;4.80;;;;;;;17.78;41.89;97675.56;4994815;28;20686;-87
2022/03/05 05:12:33;;;;;;;5.23;4.77;;;;;;;17.86;41.97;97692.06;5010505;28;20288;-85
2022/03/05 05:15:00;;;;;;;5.17;4.67;;;;;;;17.84;41.52;97689.44;4994677;28;20240;-86
2022/03/05 05:17:26;;;;;;;5.67;5.17;;;;;;;17.97;41.36;97712.06;4994534;28;20202;-87
2022/03/05 05:19:53;;;;;;;5.47;4.97;;;;;;;17.91;41.42;97708.38;4994102;28;20292;-87
2022/03/05 05:22:19;;;;;;;5.00;4.50;;;;;;;17.91;41.21;97716.00;5010730;28;20252;-87
2022/03/05 05:24:46;;;;;;;6.17;5.57;;;;;;;17.92;40.95;97716.06;4993900;28;20632;-87
2022/03/05 05:27:12;;;;;;;5.20;4.70;;;;;;;17.69;41.11;97676.03;5010709;28;20693;-87
2022/03/05 05:29:39;;;;;;;5.47;4.97;;;;;;;18.08;41.16;97740.53;5026755;28;20202;-87
2022/03/05 05:32:10;;;;;;;5.70;5.20;;;;;;;17.82;41.62;97700.31;5010704;28;20209;-87
2022/03/05 05:34:38;;;;;;;5.50;5.00;;;;;;;17.98;41.24;97729.09;5010455;28;20205;-87
2022/03/05 05:37:12;;;;;;;5.63;5.13;;;;;;;17.86;41.38;97715.78;5011613;28;20240;-87
2022/03/05 05:39:39;;;;;;;5.60;5.10;;;;;;;17.59;41.09;97675.53;4993762;28;20296;-87
2022/03/05 05:42:06;;;;;;;5.60;5.10;;;;;;;17.83;41.40;97715.66;4994022;28;20764;-87
2022/03/05 05:44:35;;;;;;;5.63;5.13;;;;;;;17.90;41.39;97726.97;5010446;28;20290;-86
2022/03/05 05:47:03;;;;;;;5.43;4.93;;;;;;;17.77;41.69;97709.41;5010563;28;20229;-87
2022/03/05 05:49:30;;;;;;;6.07;5.57;;;;;;;17.71;41.42;97701.50;4994267;28;20209;-87
2022/03/05 05:51:56;;;;;;;5.73;5.23;;;;;;;18.06;41.48;97763.34;4993493;28;20225;-87
2022/03/05 05:54:23;;;;;;;5.47;4.97;;;;;;;17.79;41.61;97718.84;5026638;28;20304;-87
2022/03/05 05:56:50;;;;;;;6.00;5.50;;;;;;;17.98;41.28;97756.19;4994027;28;20253;-87
2022/03/05 05:59:16;;;;;;;5.63;5.07;;;;;;;17.81;41.23;97729.09;4994344;28;20288;-88
2022/03/05 06:01:43;;;;;;;5.60;5.00;;;;;;;17.90;41.20;97738.03;5009890;28;20214;-88
2022/03/05 06:04:10;;;;;;;5.50;5.00;;;;;;;17.94;41.18;97751.72;4985770;28;20203;-87
2022/03/05 06:06:36;;;;;;;5.33;4.90;;;;;;;17.91;41.34;97747.38;4986273;28;20230;-88
2022/03/05 06:09:03;;;;;;;6.10;5.50;;;;;;;17.90;41.24;97744.78;4971249;28;20262;-88
2022/03/05 06:11:30;;;;;;;5.70;5.20;;;;;;;17.92;41.49;97755.91;4986559;28;20213;-88
2022/03/05 06:13:56;;;;;;;5.30;4.80;;;;;;;17.49;41.44;97681.84;4986813;28;20650;-88
2022/03/05 06:16:23;;;;;;;5.30;4.80;;;;;;;17.92;41.48;97754.22;4986727;28;20254;-87
2022/03/05 06:18:50;;;;;;;5.40;4.90;;;;;;;17.77;41.53;97738.22;4987475;28;20641;-88
2022/03/05 06:21:16;;;;;;;5.40;4.90;;;;;;;17.84;41.84;97749.56;4986978;28;20203;-88
2022/03/05 06:23:43;;;;;;;5.53;5.03;;;;;;;17.42;41.36;97681.44;4987336;28;20238;-87
2022/03/05 06:26:09;;;;;;;5.93;5.33;;;;;;;17.79;41.43;97744.28;4986888;28;20325;-87
2022/03/05 06:28:36;;;;;;;5.67;5.17;;;;;;;17.83;41.18;97745.31;4986774;28;20305;-88
2022/03/05 06:31:04;;;;;;;5.30;4.80;;;;;;;18.07;41.74;97794.75;4970550;28;20246;-87
2022/03/05 06:33:30;;;;;;;5.73;5.17;;;;;;;17.89;41.73;97764.22;4990608;28;20724;-87
2022/03/05 06:35:57;;;;;;;5.03;4.53;;;;;;;17.86;41.29;97753.91;4974802;28;20850;-87
2022/03/05 06:38:23;;;;;;;5.30;4.80;;;;;;;17.79;41.37;97749.34;4990562;28;20642;-87
2022/03/05 06:40:50;;;;;;;5.93;5.33;;;;;;;17.85;41.37;97754.72;4990666;28;20278;-88
2022/03/05 06:43:18;;;;;;;5.23;4.77;;;;;;;18.00;41.27;97785.97;4990377;28;20732;-87
2022/03/05 06:45:45;;;;;;;5.27;4.77;;;;;;;17.92;41.55;97766.06;4990764;28;20302;-88
2022/03/05 06:48:11;;;;;;;5.47;4.97;;;;;;;17.27;41.69;97665.47;4990452;28;20222;-87
2022/03/05 06:50:38;;;;;;;5.23;4.77;;;;;;;17.84;41.14;97754.66;4990204;28;20309;-88
2022/03/05 06:53:05;;;;;;;5.60;5.10;;;;;;;17.79;41.73;97746.81;4974255;28;20624;-87
2022/03/05 06:55:34;;;;;;;5.37;4.87;;;;;;;17.83;41.70;97756.31;4990418;28;20313;-87
2022/03/05 06:58:01;;;;;;;5.73;5.23;;;;;;;17.83;41.81;97763.94;4990162;28;20203;-88
2022/03/05 07:00:28;;;;;;;5.17;4.67;;;;;;;17.89;41.41;97771.84;4974450;28;20302;-88
2022/03/05 07:02:54;;;;;;;5.13;4.63;;;;;;;17.35;41.64;97680.25;4990374;28;20290;-88
2022/03/05 07:05:23;;;;;;;5.33;4.83;;;;;;;17.53;41.55;97711.66;4997303;28;20688;-87
2022/03/05 07:07:49;;;;;;;5.10;4.60;;;;;;;17.80;41.85;97755.31;4996656;28;20714;-87
2022/03/05 07:10:16;;;;;;;5.57;5.07;;;;;;;17.86;41.57;97768.31;4996318;28;20400;-87
2022/03/05 07:12:43;;;;;;;5.50;5.00;;;;;;;17.86;41.60;97765.78;4996815;28;20300;-88
2022/03/05 07:15:09;;;;;;;5.00;4.60;;;;;;;17.79;41.96;97759.53;5013036;28;20324;-88
2022/03/05 07:17:36;;;;;;;5.20;4.70;;;;;;;17.54;41.71;97718.50;5013086;28;20296;-88
2022/03/05 07:20:03;;;;;;;5.37;4.87;;;;;;;17.78;41.79;97762.00;4996457;28;20308;-87
2022/03/05 07:22:30;;;;;;;5.20;4.80;;;;;;;17.72;41.58;97759.16;4996769;28;20237;-87
2022/03/05 07:24:57;;;;;;;5.47;4.97;;;;;;;17.48;41.79;97714.78;4996367;28;20241;-88
2022/03/05 07:27:23;;;;;;;4.93;4.53;;;;;;;17.78;42.06;97773.03;4996809;28;20312;-88
2022/03/05 07:29:50;;;;;;;5.10;4.60;;;;;;;17.46;41.85;97708.75;4996699;28;20209;-87
2022/03/05 07:32:16;;;;;;;5.67;5.17;;;;;;;17.82;41.85;97782.53;4996422;28;20304;-88
2022/03/05 07:34:43;;;;;;;5.60;5.10;;;;;;;17.85;41.80;97792.88;4996557;28;20225;-88
2022/03/05 07:37:10;;;;;;;5.13;4.67;;;;;;;17.88;42.00;97798.09;4996194;28;20792;-88
2022/03/05 07:39:36;;;;;;;5.47;4.97;;;;;;;17.95;42.22;97810.28;4996527;28;20290;-87
2022/03/05 07:42:04;;;;;;;5.37;4.87;;;;;;;17.75;41.82;97780.53;5028607;28;20679;-88
2022/03/05 07:44:30;;;;;;;5.30;4.80;;;;;;;17.76;41.86;97773.75;4995560;28;20198;-87
2022/03/05 07:46:57;;;;;;;5.00;4.60;;;;;;;17.69;41.74;97764.97;5013383;28;20279;-88
2022/03/05 07:49:24;;;;;;;5.43;4.93;;;;;;;17.74;41.96;97771.13;4996760;28;20197;-88
2022/03/05 07:51:52;;;;;;;5.83;5.23;;;;;;;17.66;41.81;97762.28;5011941;28;20239;-87
2022/03/05 07:54:19;;;;;;;5.03;4.60;;;;;;;17.81;41.82;97788.44;5029175;28;20205;-87
2022/03/05 07:56:46;;;;;;;5.40;4.90;;;;;;;17.62;41.86;97755.28;5012258;28;20264;-87
2022/03/05 07:59:13;;;;;;;5.47;4.93;;;;;;;17.66;42.04;97763.94;4996430;28;20248;-87
2022/03/05 08:01:40;;;;;;;5.20;4.70;;;;;;;17.72;42.00;97772.75;4988317;28;20309;-87
2022/03/05 08:04:10;;;;;;;5.40;4.90;;;;;;;17.66;41.83;97767.38;4976135;28;20576;-87
2022/03/05 08:06:37;;;;;;;5.40;4.90;;;;;;;17.86;41.67;97809.84;4985882;28;20289;-88
2022/03/05 08:09:04;;;;;;;5.80;5.20;;;;;;;17.80;41.96;97790.91;4989483;28;20510;-87
2022/03/05 08:11:31;;;;;;;5.13;4.63;;;;;;;17.91;41.93;97812.63;4972959;28;20207;-88
2022/03/05 08:13:57;;;;;;;5.47;4.97;;;;;;;17.76;42.01;97789.00;4972218;28;20238;-88
2022/03/05 08:16:24;;;;;;;5.23;4.73;;;;;;;17.62;42.08;97762.91;4973081;28;20668;-88
2022/03/05 08:18:50;;;;;;;5.07;4.67;;;;;;;17.92;42.24;97822.84;4973885;28;20206;-88
2022/03/05 08:21:26;;;;;;;5.10;4.70;;;;;;;17.36;41.94;97722.66;4993196;28;20693;-88
2022/03/05 08:23:53;;;;;;;5.63;5.10;;;;;;;17.63;41.86;97772.31;4977115;28;20220;-88
2022/03/05 08:26:20;;;;;;;5.40;4.90;;;;;;;17.75;41.97;97780.53;4976142;28;20249;-88
2022/03/05 08:28:46;;;;;;;5.60;5.07;;;;;;;17.76;41.69;97794.97;4976060;28;20720;-88
2022/03/05 08:31:13;;;;;;;5.50;5.00;;;;;;;17.78;42.07;97795.94;4992011;28;20316;-87
2022/03/05 08:33:40;;;;;;;5.30;4.80;;;;;;;17.83;42.16;97801.22;4975817;28;20212;-88
2022/03/05 08:36:06;;;;;;;5.37;4.87;;;;;;;17.67;41.95;97773.31;4992387;28;20230;-88
2022/03/05 08:38:34;;;;;;;6.87;5.53;;;;;;;17.69;41.95;97780.22;4975716;28;20305;-88
2022/03/05 08:41:01;;;;;;;5.80;5.30;;;;;;;17.72;41.93;97782.03;4992613;28;20238;-87
2022/03/05 08:43:28;;;;;;;6.00;5.40;;;;;;;17.69;42.12;97777.69;4976278;28;20396;-88
2022/03/05 08:45:55;;;;;;;6.10;5.50;;;;;;;17.68;41.42;97772.53;4976037;28;20245;-88
2022/03/05 08:48:22;;;;;;;5.70;5.20;;;;;;;17.74;41.53;97781.31;4992051;28;20226;-87
2022/03/05 08:50:48;;;;;;;5.90;5.20;;;;;;;17.55;41.75;97755.81;4976035;28;20272;-88
2022/03/05 08:53:15;;;;;;;6.13;5.53;;;;;;;17.77;41.87;97784.00;4991913;28;20676;-88
2022/03/05 08:55:42;;;;;;;5.80;5.30;;;;;;;17.71;41.77;97777.75;4975319;28;20313;-87
2022/03/05 08:58:08;;;;;;;5.80;5.20;;;;;;;17.85;41.53;97789.44;4975655;28;20279;-88
2022/03/05 09:00:35;;;;;;;5.43;4.93;;;;;;;17.61;41.81;97762.84;4975326;28;20328;-86
2022/03/05 09:03:02;;;;;;;6.33;5.73;;;;;;;17.85;42.04;97792.88;4991776;28;20650;-86
2022/03/05 09:05:29;;;;;;;5.40;4.90;;;;;;;17.84;42.41;97791.13;5007411;28;20221;-88
2022/03/05 09:07:55;;;;;;;6.03;4.83;;;;;;;17.28;41.86;97693.47;4991784;28;20324;-88
2022/03/05 09:10:22;;;;;;;5.20;4.70;;;;;;;17.82;41.66;97790.19;4975180;28;20202;-88
2022/03/05 09:12:48;;;;;;;5.90;5.17;;;;;;;17.70;41.92;97764.16;4975537;28;20248;-88
2022/03/05 09:15:16;;;;;;;5.33;4.83;;;;;;;17.65;41.91;97750.34;4975312;28;20790;-88
2022/03/05 09:17:42;;;;;;;5.57;5.07;;;;;;;17.62;41.68;97745.13;4976026;28;20289;-88
2022/03/05 09:20:10;;;;;;;5.53;5.03;;;;;;;17.75;41.83;97772.91;4990990;28;20656;-88
2022/03/05 09:22:37;;;;;;;5.13;4.63;;;;;;;17.96;41.80;97811.16;4991846;28;20226;-88
2022/03/05 09:25:04;;;;;;;5.67;5.10;;;;;;;17.92;41.66;97797.44;4991483;28;20314;-87
2022/03/05 09:27:32;;;;;;;5.53;5.03;;;;;;;17.34;41.82;97693.78;4975093;28;20230;-87
2022/03/05 09:29:58;;;;;;;5.47;4.97;;;;;;;17.81;42.11;97774.84;4991161;28;20739;-87
2022/03/05 09:32:25;;;;;;;5.37;4.87;;;;;;;17.72;41.56;97754.97;4990477;28;20668;-88
2022/03/05 09:34:52;;;;;;;5.20;4.70;;;;;;;17.69;41.68;97749.72;4991195;28;20202;-87
2022/03/05 09:37:19;;;;;;;5.70;5.10;;;;;;;17.82;41.86;97768.97;4990881;28;20673;-86
2022/03/05 09:39:47;;;;;;;4.70;4.30;;;;;;;17.63;41.80;97736.72;4974930;28;20264;-88
2022/03/05 09:42:13;;;;;;;5.07;4.57;;;;;;;17.32;42.04;97680.13;4975053;28;20304;-88
2022/03/05 09:44:40;;;;;;;4.97;4.47;;;;;;;17.77;41.88;97756.03;4991093;28;20202;-88
2022/03/05 09:47:07;;;;;;;4.77;4.37;;;;;;;17.74;42.04;97755.88;4974318;28;20592;-89
2022/03/05 09:49:35;;;;;;;5.07;4.57;;;;;;;17.66;42.11;97738.53;4979606;28;20206;-88
2022/03/05 09:52:03;;;;;;;5.23;4.73;;;;;;;18.02;42.06;97793.66;4974588;28;20206;-88
2022/03/05 09:54:30;;;;;;;5.77;4.97;;;;;;;17.85;42.03;97766.56;4990807;28;20294;-88
2022/03/05 09:56:56;;;;;;;5.43;4.93;;;;;;;17.86;41.95;97771.72;4974681;28;20321;-87
2022/03/05 09:59:23;;;;;;;5.30;4.80;;;;;;;17.85;42.24;97769.97;4973319;28;20233;-88
2022/03/05 10:01:50;;;;;;;5.20;4.70;;;;;;;17.48;41.73;97709.72;5002011;28;20612;-88
2022/03/05 10:04:21;;;;;;;4.80;4.40;;;;;;;17.76;41.82;97750.88;4980216;28;20198;-88
2022/03/05 10:07:06;;;;;;;5.33;4.83;;;;;;;18.04;42.06;97797.16;4993759;28;20614;-88
2022/03/05 10:09:33;;;;;;;5.20;4.70;;;;;;;17.86;41.74;97773.41;5026621;28;20296;-88
2022/03/05 10:12:00;;;;;;;5.17;4.67;;;;;;;18.03;41.65;97800.50;5010078;28;20198;-87
2022/03/05 10:14:26;;;;;;;5.23;4.73;;;;;;;17.69;42.08;97738.69;4993378;28;20233;-88
2022/03/05 10:17:00;;;;;;;5.30;4.80;;;;;;;17.66;42.03;97733.47;4993692;28;20320;-88
2022/03/05 10:19:27;;;;;;;5.10;4.60;;;;;;;17.77;41.70;97765.34;4991219;28;20205;-88
2022/03/05 10:21:59;;;;;;;5.13;4.63;;;;;;;17.38;41.97;97688.03;4973887;28;20299;-88
2022/03/05 10:24:36;;;;;;;5.67;5.17;;;;;;;17.75;41.95;97747.47;4989801;28;20285;-88
2022/03/05 10:27:04;;;;;;;5.20;4.70;;;;;;;17.70;42.11;97738.75;4990825;28;20265;-86
2022/03/05 10:29:35;;;;;;;4.53;4.13;;;;;;;17.75;41.91;97750.03;4990222;28;20692;-88
2022/03/05 10:32:10;;;;;;;5.20;4.70;;;;;;;17.81;41.87;97757.94;4974998;28;20645;-88
2022/03/05 10:34:44;;;;;;;5.20;4.70;;;;;;;17.98;42.29;97790.13;4973881;28;20288;-87
2022/03/05 10:37:11;;;;;;;4.80;4.40;;;;;;;17.80;41.86;97761.25;5006548;28;20232;-89
2022/03/05 10:39:37;;;;;;;4.97;4.50;;;;;;;17.87;42.44;97773.47;4974031;28;20665;-87
2022/03/05 10:42:21;;;;;;;5.00;4.50;;;;;;;17.96;41.99;97784.09;5007045;28;20745;-88
2022/03/05 10:45:08;;;;;;;4.73;4.33;;;;;;;17.72;42.29;97744.78;5006488;28;20718;-87
2022/03/05 10:47:38;;;;;;;4.77;4.37;;;;;;;17.61;42.39;97729.81;4990771;28;20305;-88
2022/03/05 10:50:24;;;;;;;5.30;4.77;;;;;;;17.94;42.35;97783.13;4973749;28;20656;-87
2022/03/05 10:53:01;;;;;;;4.50;4.10;;;;;;;17.68;42.04;97729.31;5006462;28;20210;-88
2022/03/05 10:55:35;;;;;;;5.10;4.70;;;;;;;17.70;42.28;97738.75;4974776;28;20329;-88
2022/03/05 10:58:13;;;;;;;4.60;4.20;;;;;;;17.50;41.92;97710.66;4974243;28;20301;-88
2022/03/05 11:00:41;;;;;;;4.73;4.33;;;;;;;17.68;41.83;97736.94;4974454;28;20198;-87
2022/03/05 11:03:07;;;;;;;4.80;4.37;;;;;;;17.63;41.96;97734.19;4974116;28;20234;-87
2022/03/05 11:05:34;;;;;;;4.50;4.10;;;;;;;17.68;41.67;97742.88;4973610;28;20237;-88
2022/03/05 11:08:01;;;;;;;5.23;4.73;;;;;;;17.60;42.11;97725.53;4989980;28;20312;-89
2022/03/05 11:10:29;;;;;;;4.87;4.47;;;;;;;17.84;42.08;97763.16;4973690;28;20484;-88
2022/03/05 11:13:02;;;;;;;4.67;4.23;;;;;;;17.56;42.15;97721.97;4973614;28;20217;-88
2022/03/05 11:15:30;;;;;;;4.73;4.33;;;;;;;17.69;42.23;97746.31;4974407;28;20230;-88
2022/03/05 11:17:59;;;;;;;4.97;4.47;;;;;;;17.73;42.11;97759.22;4975021;28;20198;-88
2022/03/05 11:20:26;;;;;;;4.33;3.93;;;;;;;17.83;42.10;97770.72;4978129;28;20237;-88
2022/03/05 11:22:53;;;;;;;5.30;4.80;;;;;;;17.61;41.70;97729.81;4993184;28;20293;-88
2022/03/05 11:25:21;;;;;;;4.27;3.87;;;;;;;17.67;41.69;97742.81;4993479;28;20262;-88
2022/03/05 11:28:05;;;;;;;4.43;4.03;;;;;;;17.70;42.02;97751.47;4977140;28;20313;-88
2022/03/05 11:30:42;;;;;;;4.53;4.13;;;;;;;17.72;42.08;97756.63;4976935;28;20311;-87
2022/03/05 11:33:38;;;;;;;4.30;3.90;;;;;;;17.70;42.18;97748.91;4977013;28;20257;-88
2022/03/05 11:36:05;;;;;;;4.77;4.37;;;;;;;17.58;42.13;97730.53;4984824;28;20257;-88
2022/03/05 11:38:36;;;;;;;4.70;4.23;;;;;;;17.67;42.08;97741.16;4992932;28;20305;-88
2022/03/05 11:41:22;;;;;;;4.80;4.30;;;;;;;17.64;42.42;97724.88;4976695;28;20209;-88
2022/03/05 11:43:49;;;;;;;4.40;4.00;;;;;;;17.20;41.92;97659.22;5008753;28;20695;-88
2022/03/05 11:46:24;;;;;;;4.37;3.97;;;;;;;17.27;42.21;97666.34;5009149;28;20295;-88
2022/03/05 11:49:03;;;;;;;4.80;4.30;;;;;;;17.80;41.75;97747.69;4993578;28;20281;-88
2022/03/05 11:51:30;;;;;;;4.53;4.07;;;;;;;17.63;41.92;97712.97;4976734;28;20206;-88
2022/03/05 11:54:14;;;;;;;4.40;4.00;;;;;;;17.20;41.61;97649.06;4992516;28;20300;-88
2022/03/05 11:57:16;;;;;;;4.30;3.90;;;;;;;17.27;41.86;97651.09;4982437;28;20226;-87
2022/03/05 11:59:53;;;;;;;4.97;3.80;;;;;;;17.73;41.74;97727.84;4977991;28;20922;-88
2022/03/05 12:02:41;;;;;;;4.37;3.97;;;;;;;17.66;41.52;97705.50;4992624;28;20676;-88
2022/03/05 12:05:08;;;;;;;4.47;4.07;;;;;;;17.67;41.67;97710.66;5005065;28;20201;-88
2022/03/05 12:07:40;;;;;;;4.10;3.70;;;;;;;17.89;41.88;97748.97;5012258;28;20658;-88
2022/03/05 12:10:11;;;;;;;4.53;4.13;;;;;;;17.67;42.02;97707.22;5011807;28;20233;-88
2022/03/05 12:12:54;;;;;;;4.00;3.70;;;;;;;17.65;41.61;97697.00;5011749;28;20313;-88
2022/03/05 12:15:33;;;;;;;4.30;3.90;;;;;;;17.92;41.51;97735.56;4995780;28;20249;-88
2022/03/05 12:18:00;;;;;;;3.87;3.57;;;;;;;17.68;42.04;97697.13;5030115;28;20738;-87
2022/03/05 12:20:31;;;;;;;4.23;3.83;;;;;;;17.65;41.94;97696.16;5012009;28;20237;-88
2022/03/05 12:23:04;;;;;;;4.20;3.80;;;;;;;17.52;41.51;97664.19;4996595;28;20279;-88
2022/03/05 12:25:35;;;;;;;4.33;3.93;;;;;;;17.70;41.48;97697.22;4996530;28;20264;-89
2022/03/05 12:28:03;;;;;;;3.93;3.63;;;;;;;17.60;41.82;97669.63;4996189;28;20312;-88
2022/03/05 12:30:37;;;;;;;4.10;3.70;;;;;;;17.74;41.71;97694.88;4994856;28;20255;-88
2022/03/05 12:33:05;;;;;;;3.87;3.57;;;;;;;17.94;41.86;97724.66;4995940;28;20205;-87
2022/03/05 12:35:32;;;;;;;3.93;3.60;;;;;;;17.79;41.44;97695.09;5011675;28;20217;-88
2022/03/05 12:37:59;;;;;;;4.17;3.77;;;;;;;17.80;41.96;97695.16;4995461;28;20247;-87
2022/03/05 12:40:27;;;;;;;4.37;3.97;;;;;;;17.11;41.55;97567.34;4995183;28;20209;-88
2022/03/05 12:42:54;;;;;;;3.90;3.60;;;;;;;17.77;41.97;97671.28;5011491;28;20774;-88
2022/03/05 12:45:27;;;;;;;3.77;3.37;;;;;;;17.96;41.99;97709.47;4995227;28;20237;-87
2022/03/05 12:47:54;;;;;;;4.50;4.10;;;;;;;17.79;41.78;97680.72;5011455;28;20217;-88
2022/03/05 12:50:21;;;;;;;3.80;3.50;;;;;;;17.98;41.15;97707.88;4994863;28;20256;-88
2022/03/05 12:52:57;;;;;;;3.90;3.60;;;;;;;17.37;41.84;97599.03;5027628;28;20232;-88
2022/03/05 12:55:26;;;;;;;4.40;4.00;;;;;;;17.72;41.79;97650.75;5027856;28;20304;-88
2022/03/05 12:57:56;;;;;;;4.00;3.70;;;;;;;17.78;41.87;97661.19;4994973;28;20651;-87
2022/03/05 13:00:23;;;;;;;4.10;3.70;;;;;;;17.78;41.51;97660.31;4995195;28;20233;-88
2022/03/05 13:02:49;;;;;;;3.93;3.63;;;;;;;17.79;41.74;97651.88;4994399;28;20683;-87
2022/03/05 13:05:16;;;;;;;4.00;3.60;;;;;;;17.81;41.57;97661.34;4978235;28;20310;-88
2022/03/05 13:07:44;;;;;;;3.70;3.40;;;;;;;17.77;41.36;97658.59;4988150;28;20724;-87
2022/03/05 13:10:11;;;;;;;4.13;3.73;;;;;;;17.66;41.50;97639.41;4972258;28;20242;-87
2022/03/05 13:12:38;;;;;;;4.40;3.90;;;;;;;17.75;41.79;97658.50;4987619;28;20658;-88